Time;durP1;ratioP1;P1;durP2;ratioP2;P2;SDS_P1;SDS_P2;PMS_P1;PMS_P2;Temp;Humidity;BMP_temperature;BMP_pressure;BME280_temperature;BME280_humidity;BME280_pressure;Samples;Min_cycle;Max_cycle;Signal;HPM_P1;HPM_P2
2024/02/26 00:01:33;;;;;;;0.70;0.70;;;4.90;99.90;;;;;;5074782;28;20233;-90
2024/02/26 00:03:59;;;;;;;1.20;1.20;;;4.80;99.90;;;;;;5074735;28;20241;-87
2024/02/26 00:06:25;;;;;;;0.50;0.50;;;4.80;99.90;;;;;;5058120;28;20233;-88
2024/02/26 00:08:51;;;;;;;0.70;0.70;;;5.10;99.90;;;;;;5058037;28;20201;-88
2024/02/26 00:11:17;;;;;;;0.30;0.30;;;4.80;99.90;;;;;;5058204;28;20558;-88
2024/02/26 00:13:43;;;;;;;0.30;0.30;;;5.00;99.90;;;;;;5057757;28;20848;-92
2024/02/26 00:16:08;;;;;;;1.50;0.83;;;4.90;99.90;;;;;;5074497;28;20316;-87
2024/02/26 00:18:34;;;;;;;0.37;0.37;;;5.20;99.90;;;;;;5074495;28;20235;-91
2024/02/26 00:21:00;;;;;;;0.50;0.50;;;5.00;99.90;;;;;;5074473;28;20208;-90
2024/02/26 00:23:27;;;;;;;0.70;0.70;;;4.80;99.90;;;;;;5058333;28;20197;-89
2024/02/26 00:25:53;;;;;;;0.83;0.40;;;5.10;99.90;;;;;;5074205;28;20232;-90
2024/02/26 00:28:19;;;;;;;0.60;0.60;;;5.10;99.90;;;;;;5057924;28;20714;-87
2024/02/26 00:30:46;;;;;;;0.30;0.30;;;5.10;99.90;;;;;;5074109;28;20237;-89
2024/02/26 00:33:12;;;;;;;0.33;0.33;;;5.00;99.90;;;;;;5057093;28;20754;-90
2024/02/26 00:35:39;;;;;;;0.40;0.40;;;5.20;99.90;;;;;;5074288;28;20201;-87
2024/02/26 00:38:05;;;;;;;0.10;0.10;;;5.10;99.90;;;;;;5057222;28;20278;-88
2024/02/26 00:40:31;;;;;;;1.13;1.03;;;5.00;99.90;;;;;;5057479;28;20233;-90
2024/02/26 00:42:57;;;;;;;0.30;0.30;;;5.20;99.90;;;;;;5075262;28;20683;-87
2024/02/26 00:45:23;;;;;;;0.20;0.20;;;5.10;99.90;;;;;;5073838;28;20631;-89
2024/02/26 00:47:48;;;;;;;1.20;1.20;;;5.20;99.90;;;;;;5057207;28;20200;-90
2024/02/26 00:50:15;;;;;;;0.33;0.33;;;5.30;99.90;;;;;;5057517;28;20208;-86
2024/02/26 00:52:40;;;;;;;0.40;0.40;;;5.30;99.90;;;;;;5073746;28;20261;-87
2024/02/26 00:55:07;;;;;;;0.53;0.53;;;5.10;99.90;;;;;;5073700;28;20270;-86
2024/02/26 00:57:33;;;;;;;0.40;0.40;;;5.20;99.90;;;;;;5074642;28;20248;-86
2024/02/26 00:59:59;;;;;;;0.23;0.23;;;5.20;99.90;;;;;;5056427;28;20194;-90
2024/02/26 01:02:25;;;;;;;0.70;0.70;;;5.30;99.90;;;;;;5074076;28;20204;-90
2024/02/26 01:04:50;;;;;;;0.40;0.40;;;5.20;99.90;;;;;;5072933;28;20233;-86
2024/02/26 01:07:16;;;;;;;0.67;0.67;;;5.10;99.90;;;;;;5056756;28;20306;-86
2024/02/26 01:09:42;;;;;;;1.00;0.90;;;5.10;99.90;;;;;;5073238;28;20688;-86
2024/02/26 01:12:08;;;;;;;0.57;0.57;;;5.10;99.90;;;;;;5056862;28;20304;-87
2024/02/26 01:14:34;;;;;;;0.57;0.40;;;4.90;99.90;;;;;;5057017;28;20639;-87
2024/02/26 01:17:00;;;;;;;0.40;0.40;;;4.80;99.90;;;;;;5073535;28;20312;-86
2024/02/26 01:19:25;;;;;;;0.47;0.47;;;4.90;99.90;;;;;;5056859;28;20233;-86
2024/02/26 01:21:51;;;;;;;0.40;0.40;;;5.00;99.90;;;;;;5073496;28;20269;-87
2024/02/26 01:24:17;;;;;;;0.70;0.70;;;5.00;99.90;;;;;;5056677;28;20302;-87
2024/02/26 01:26:43;;;;;;;0.20;0.20;;;5.20;99.90;;;;;;5056091;28;20204;-87
2024/02/26 01:29:08;;;;;;;1.23;0.83;;;4.90;99.90;;;;;;5073448;28;20255;-89
2024/02/26 01:31:34;;;;;;;0.20;0.20;;;4.90;99.90;;;;;;5056701;28;20268;-87
2024/02/26 01:34:01;;;;;;;0.70;0.70;;;4.90;99.90;;;;;;5056144;28;20232;-90
2024/02/26 01:36:26;;;;;;;0.97;0.97;;;5.00;99.90;;;;;;5056089;28;20366;-88
2024/02/26 01:38:52;;;;;;;0.30;0.30;;;5.00;99.90;;;;;;5073561;28;20308;-88
2024/02/26 01:41:18;;;;;;;0.30;0.30;;;4.90;99.90;;;;;;5056655;28;20202;-92
2024/02/26 01:43:43;;;;;;;0.77;0.63;;;5.00;99.90;;;;;;5072254;28;20699;-87
2024/02/26 01:46:14;;;;;;;0.63;0.63;;;5.10;99.90;;;;;;5055578;28;20241;-91
2024/02/26 01:48:47;;;;;;;0.53;0.53;;;5.00;99.90;;;;;;5055668;28;20225;-86
2024/02/26 01:51:14;;;;;;;0.30;0.30;;;5.10;99.90;;;;;;5055757;28;20747;-91
2024/02/26 01:53:40;;;;;;;1.63;0.83;;;5.20;99.90;;;;;;5073396;28;20201;-89
2024/02/26 01:56:07;;;;;;;0.30;0.30;;;5.10;99.90;;;;;;5056118;28;20247;-89
2024/02/26 01:58:34;;;;;;;2.37;1.50;;;5.20;99.90;;;;;;5071903;28;20326;-86
2024/02/26 02:01:01;;;;;;;0.77;0.77;;;5.30;99.90;;;;;;5073170;28;20239;-90
2024/02/26 02:03:28;;;;;;;0.20;0.20;;;5.20;99.90;;;;;;5071914;28;20243;-91
2024/02/26 02:05:54;;;;;;;0.20;0.20;;;5.20;99.90;;;;;;5055441;28;20280;-87
2024/02/26 02:08:20;;;;;;;0.20;0.20;;;5.30;99.90;;;;;;5055423;28;20280;-87
2024/02/26 02:10:47;;;;;;;0.30;0.30;;;5.10;99.90;;;;;;5071644;28;20251;-89
2024/02/26 02:13:14;;;;;;;1.10;1.03;;;5.20;99.90;;;;;;5073294;28;20239;-86
2024/02/26 02:15:39;;;;;;;0.60;0.60;;;5.10;99.90;;;;;;5073170;28;20312;-87
2024/02/26 02:18:06;;;;;;;0.93;0.77;;;5.00;99.90;;;;;;5055941;28;20719;-88
2024/02/26 02:20:33;;;;;;;0.40;0.40;;;5.20;99.90;;;;;;5072347;28;20205;-86
2024/02/26 02:22:59;;;;;;;0.30;0.30;;;5.00;99.90;;;;;;5055183;28;20826;-88
2024/02/26 02:25:25;;;;;;;0.43;0.43;;;5.10;99.90;;;;;;5072981;28;20311;-88
2024/02/26 02:27:53;;;;;;;0.20;0.20;;;5.10;99.90;;;;;;5071875;28;20267;-89
2024/02/26 02:30:21;;;;;;;0.27;0.27;;;5.00;99.90;;;;;;5073489;28;20235;-86
2024/02/26 02:32:47;;;;;;;0.70;0.70;;;5.20;99.90;;;;;;5072966;28;20201;-87
2024/02/26 02:35:13;;;;;;;0.53;0.53;;;5.10;99.90;;;;;;5072914;28;20216;-86
2024/02/26 02:37:39;;;;;;;0.60;0.60;;;5.20;99.90;;;;;;5055557;28;20229;-86
2024/02/26 02:40:05;;;;;;;0.30;0.30;;;4.90;99.90;;;;;;5072567;28;20681;-87
2024/02/26 02:42:31;;;;;;;0.27;0.27;;;5.00;99.90;;;;;;5055528;28;20617;-88
2024/02/26 02:44:57;;;;;;;0.30;0.30;;;5.00;99.90;;;;;;5056270;28;20699;-86
2024/02/26 02:47:23;;;;;;;0.33;0.33;;;4.90;99.90;;;;;;5059042;28;20247;-87
2024/02/26 02:49:48;;;;;;;0.30;0.30;;;4.80;99.90;;;;;;5058343;28;20232;-86
2024/02/26 02:52:14;;;;;;;0.40;0.40;;;4.90;99.90;;;;;;5091921;28;20236;-87
2024/02/26 02:54:41;;;;;;;0.53;0.53;;;4.80;99.90;;;;;;5092917;28;20228;-87
2024/02/26 02:57:08;;;;;;;0.50;0.50;;;4.80;99.90;;;;;;5075339;28;20291;-85
2024/02/26 02:59:34;;;;;;;0.50;0.50;;;4.80;99.90;;;;;;5058775;28;20556;-86
2024/02/26 03:01:59;;;;;;;0.30;0.30;;;4.70;99.90;;;;;;5058103;28;20243;-87
2024/02/26 03:04:25;;;;;;;0.30;0.30;;;4.90;99.90;;;;;;5090317;28;20232;-87
2024/02/26 03:06:51;;;;;;;0.50;0.50;;;4.80;99.90;;;;;;5074379;28;20239;-88
2024/02/26 03:09:17;;;;;;;0.27;0.27;;;5.00;99.90;;;;;;5074084;28;20247;-89
2024/02/26 03:11:43;;;;;;;0.20;0.20;;;5.20;99.90;;;;;;5057974;28;20288;-91
2024/02/26 03:14:09;;;;;;;0.40;0.40;;;5.10;99.90;;;;;;5058216;28;20610;-88
2024/02/26 03:16:35;;;;;;;0.50;0.50;;;5.10;99.90;;;;;;5074151;28;20719;-88
2024/02/26 03:19:02;;;;;;;0.60;0.50;;;5.10;99.90;;;;;;5057569;28;20224;-91
2024/02/26 03:21:28;;;;;;;0.33;0.33;;;5.10;99.90;;;;;;5074438;28;20732;-89
2024/02/26 03:23:54;;;;;;;0.40;0.40;;;5.20;99.90;;;;;;5074242;28;20205;-86
2024/02/26 03:26:21;;;;;;;0.30;0.30;;;5.10;99.90;;;;;;5074812;28;20215;-90
2024/02/26 03:28:47;;;;;;;0.93;0.93;;;5.00;99.90;;;;;;5073874;28;20231;-85
2024/02/26 03:31:13;;;;;;;0.47;0.47;;;5.10;99.90;;;;;;5074350;28;20277;-86
2024/02/26 03:33:39;;;;;;;0.20;0.20;;;5.00;99.90;;;;;;5092203;28;20276;-88
2024/02/26 03:36:07;;;;;;;0.40;0.40;;;5.10;99.90;;;;;;5073804;28;20232;-86
2024/02/26 03:38:33;;;;;;;0.30;0.30;;;4.90;99.90;;;;;;5058107;28;20220;-89
2024/02/26 03:40:59;;;;;;;0.43;0.43;;;5.00;99.90;;;;;;5092282;28;20232;-90
2024/02/26 03:43:24;;;;;;;0.40;0.40;;;4.90;99.90;;;;;;5073826;28;20236;-89
2024/02/26 03:45:50;;;;;;;0.40;0.40;;;4.80;99.90;;;;;;5090530;28;20267;-92
2024/02/26 03:48:16;;;;;;;0.80;0.80;;;5.00;99.90;;;;;;5074066;28;20220;-87
2024/02/26 03:50:42;;;;;;;7.60;1.50;;;5.00;99.90;;;;;;5057818;28;20605;-86
2024/02/26 03:53:09;;;;;;;1.10;0.67;;;5.00;99.90;;;;;;5057982;28;20269;-86
2024/02/26 03:55:35;;;;;;;0.80;0.80;;;5.00;99.90;;;;;;5074780;28;20239;-86
2024/02/26 03:58:00;;;;;;;0.20;0.20;;;5.00;99.90;;;;;;5057095;28;20724;-86
2024/02/26 04:00:28;;;;;;;1.70;1.07;;;5.20;99.90;;;;;;5074436;28;20229;-87
2024/02/26 04:02:54;;;;;;;0.40;0.40;;;5.10;99.90;;;;;;5057555;28;20256;-86
2024/02/26 04:05:20;;;;;;;0.60;0.50;;;5.30;99.90;;;;;;5074431;28;20275;-89
2024/02/26 04:07:46;;;;;;;0.20;0.20;;;5.50;99.90;;;;;;5074088;28;20224;-89
2024/02/26 04:10:12;;;;;;;0.50;0.50;;;5.50;99.90;;;;;;5074086;28;20242;-86
2024/02/26 04:12:40;;;;;;;0.40;0.40;;;5.60;99.90;;;;;;5057413;28;20232;-87
2024/02/26 04:15:07;;;;;;;0.47;0.43;;;5.60;99.90;;;;;;5074224;28;20561;-88
2024/02/26 04:17:33;;;;;;;1.40;1.40;;;5.60;99.90;;;;;;5061462;28;20257;-86
2024/02/26 04:19:58;;;;;;;0.33;0.33;;;5.50;99.90;;;;;;5077164;28;20232;-85
2024/02/26 04:22:24;;;;;;;1.33;1.23;;;5.60;99.90;;;;;;5095601;28;20236;-87
2024/02/26 04:24:50;;;;;;;0.77;0.50;;;5.60;99.90;;;;;;5061548;28;20228;-87
2024/02/26 04:27:16;;;;;;;1.10;0.80;;;5.70;99.90;;;;;;5077995;28;20693;-87
2024/02/26 04:29:41;;;;;;;1.00;0.70;;;5.70;99.90;;;;;;5061527;28;20204;-86
2024/02/26 04:32:07;;;;;;;0.30;0.30;;;5.40;99.90;;;;;;5078329;28;20261;-88
2024/02/26 04:34:33;;;;;;;0.53;0.50;;;5.70;99.90;;;;;;5077334;28;20277;-86
2024/02/26 04:36:58;;;;;;;0.43;0.40;;;5.50;99.90;;;;;;5060963;28;20233;-86
2024/02/26 04:39:24;;;;;;;0.53;0.53;;;5.60;99.90;;;;;;5060719;28;20235;-90
2024/02/26 04:41:50;;;;;;;0.70;0.70;;;5.50;99.90;;;;;;5060455;28;20200;-89
2024/02/26 04:44:16;;;;;;;1.57;1.43;;;5.50;99.90;;;;;;5061630;28;20220;-90
2024/02/26 04:46:42;;;;;;;0.30;0.30;;;5.60;99.90;;;;;;5076604;28;20270;-85
2024/02/26 04:49:08;;;;;;;0.37;0.37;;;5.50;99.90;;;;;;5077185;28;20230;-86
2024/02/26 04:51:34;;;;;;;0.53;0.53;;;5.70;99.90;;;;;;5077603;28;20224;-89
2024/02/26 04:53:59;;;;;;;1.20;1.10;;;5.50;99.90;;;;;;5095001;28;20208;-90
2024/02/26 04:56:25;;;;;;;0.50;0.50;;;5.50;99.90;;;;;;5061157;28;20196;-88
2024/02/26 04:58:51;;;;;;;0.30;0.30;;;5.60;99.90;;;;;;5076831;28;20756;-86
2024/02/26 05:01:18;;;;;;;0.77;0.77;;;5.70;99.90;;;;;;5060317;28;20290;-86
2024/02/26 05:03:44;;;;;;;0.57;0.57;;;5.70;99.90;;;;;;5076776;28;20232;-89
2024/02/26 05:06:10;;;;;;;0.80;0.80;;;5.70;99.90;;;;;;5060594;28;20228;-87
2024/02/26 05:08:37;;;;;;;0.50;0.50;;;5.70;99.90;;;;;;5094434;28;20550;-86
2024/02/26 05:11:03;;;;;;;0.30;0.30;;;5.70;99.90;;;;;;5060569;28;20668;-87
2024/02/26 05:13:29;;;;;;;0.73;0.73;;;5.70;99.90;;;;;;5059787;28;20603;-87
2024/02/26 05:15:55;;;;;;;1.40;0.43;;;5.70;99.90;;;;;;5060576;28;20691;-88
2024/02/26 05:18:22;;;;;;;0.30;0.30;;;5.80;99.90;;;;;;5076417;28;20232;-88
2024/02/26 05:20:48;;;;;;;0.77;0.77;;;5.70;99.90;;;;;;5059905;28;20706;-87
2024/02/26 05:23:13;;;;;;;0.40;0.40;;;5.60;99.90;;;;;;5077104;28;20204;-86
2024/02/26 05:25:40;;;;;;;0.13;0.13;;;5.60;99.90;;;;;;5093686;28;20316;-86
2024/02/26 05:28:06;;;;;;;0.73;0.70;;;5.50;99.90;;;;;;5075625;28;20229;-86
2024/02/26 05:30:31;;;;;;;1.13;0.53;;;5.40;99.90;;;;;;5059756;28;20232;-88
2024/02/26 05:32:57;;;;;;;1.70;0.60;;;5.40;99.90;;;;;;5064034;28;20200;-88
2024/02/26 05:35:23;;;;;;;0.40;0.40;;;5.40;99.90;;;;;;5062329;28;20304;-90
2024/02/26 05:37:48;;;;;;;0.37;0.37;;;5.40;99.90;;;;;;5059196;28;20235;-86
2024/02/26 05:40:14;;;;;;;0.30;0.30;;;5.40;99.90;;;;;;5059740;28;20289;-85
2024/02/26 05:42:40;;;;;;;0.30;0.30;;;5.40;99.90;;;;;;5076573;28;20312;-85
2024/02/26 05:45:09;;;;;;;0.67;0.60;;;5.40;99.90;;;;;;5092993;28;20254;-88
2024/02/26 05:47:35;;;;;;;0.50;0.50;;;5.40;99.90;;;;;;5059896;28;20244;-85
2024/02/26 05:50:02;;;;;;;0.53;0.53;;;5.40;99.90;;;;;;5076547;28;20256;-86
2024/02/26 05:52:31;;;;;;;0.23;0.23;;;5.40;99.90;;;;;;5092611;28;20224;-87
2024/02/26 05:54:57;;;;;;;0.23;0.23;;;5.40;99.90;;;;;;5075677;28;20270;-86
2024/02/26 05:57:23;;;;;;;0.20;0.20;;;5.50;99.90;;;;;;5093429;28;20224;-86
2024/02/26 05:59:48;;;;;;;0.20;0.20;;;5.50;99.90;;;;;;5059152;28;20228;-86
2024/02/26 06:02:15;;;;;;;0.37;0.37;;;5.50;99.90;;;;;;5093373;28;20200;-86
2024/02/26 06:04:41;;;;;;;0.20;0.20;;;5.50;99.90;;;;;;5094135;28;20228;-88
2024/02/26 06:07:06;;;;;;;0.47;0.47;;;5.50;99.90;;;;;;5075823;28;20274;-86
2024/02/26 06:09:32;;;;;;;0.40;0.40;;;5.50;99.90;;;;;;5075573;28;20610;-87
2024/02/26 06:11:58;;;;;;;0.10;0.10;;;5.50;99.90;;;;;;5075532;28;20284;-87
2024/02/26 06:14:24;;;;;;;0.30;0.30;;;5.50;99.90;;;;;;5059496;28;20236;-88
2024/02/26 06:16:50;;;;;;;0.30;0.30;;;5.50;99.90;;;;;;5059238;28;20239;-88
2024/02/26 06:19:16;;;;;;;0.20;0.20;;;5.40;99.90;;;;;;5059035;28;20228;-86
2024/02/26 06:21:41;;;;;;;0.40;0.40;;;5.30;99.90;;;;;;5058835;28;20232;-87
2024/02/26 06:24:07;;;;;;;0.30;0.30;;;5.40;99.90;;;;;;5093634;28;20230;-88
2024/02/26 06:26:33;;;;;;;0.27;0.27;;;5.40;99.90;;;;;;5076103;28;20725;-87
2024/02/26 06:29:02;;;;;;;0.30;0.30;;;5.30;99.90;;;;;;5075302;28;20232;-89
2024/02/26 06:31:30;;;;;;;0.70;0.70;;;5.30;99.90;;;;;;5075247;28;20572;-87
2024/02/26 06:33:56;;;;;;;0.50;0.50;;;5.30;99.90;;;;;;5075497;28;20240;-87
2024/02/26 06:36:22;;;;;;;0.23;0.23;;;5.30;99.90;;;;;;5074861;28;20657;-87
2024/02/26 06:38:49;;;;;;;0.20;0.20;;;5.30;99.90;;;;;;5091473;28;20220;-88
2024/02/26 06:41:15;;;;;;;0.30;0.30;;;5.30;99.90;;;;;;5093381;28;20224;-85
2024/02/26 06:43:40;;;;;;;0.40;0.40;;;5.20;99.90;;;;;;5074949;28;20224;-86
2024/02/26 06:46:07;;;;;;;0.37;0.37;;;5.30;99.90;;;;;;5071169;28;20575;-87
2024/02/26 06:48:33;;;;;;;0.30;0.30;;;5.30;99.90;;;;;;5054659;28;20228;-86
2024/02/26 06:50:58;;;;;;;0.20;0.20;;;5.30;99.90;;;;;;5071439;28;20216;-88
2024/02/26 06:53:27;;;;;;;0.30;0.30;;;5.30;99.90;;;;;;5055401;28;20286;-96
2024/02/26 06:55:55;;;;;;;0.30;0.30;;;5.30;99.90;;;;;;5073008;28;20274;-87
2024/02/26 06:58:20;;;;;;;0.23;0.23;;;5.40;99.90;;;;;;5072020;28;20288;-91
2024/02/26 07:00:46;;;;;;;0.13;0.13;;;5.40;99.90;;;;;;5071682;28;20281;-92
2024/02/26 07:03:13;;;;;;;0.13;0.13;;;5.40;99.90;;;;;;5071461;28;20225;-91
2024/02/26 07:05:39;;;;;;;0.67;0.60;;;5.50;99.90;;;;;;5055998;28;20205;-89
2024/02/26 07:08:05;;;;;;;0.20;0.20;;;5.40;99.90;;;;;;5054372;28;20237;-91
2024/02/26 07:10:33;;;;;;;0.20;0.20;;;5.50;99.90;;;;;;5072763;28;20596;-92
2024/02/26 07:12:59;;;;;;;0.20;0.20;;;5.50;99.90;;;;;;5071779;28;20237;-90
2024/02/26 07:15:25;;;;;;;0.30;0.30;;;5.40;99.90;;;;;;5055059;28;20527;-90
2024/02/26 07:17:51;;;;;;;1.03;1.03;;;5.40;99.90;;;;;;5071738;28;20405;-91
2024/02/26 07:20:18;;;;;;;0.20;0.20;;;5.40;99.90;;;;;;5073012;28;20209;-92
2024/02/26 07:22:44;;;;;;;0.30;0.30;;;5.40;99.90;;;;;;5071383;28;20319;-88
2024/02/26 07:25:13;;;;;;;1.60;0.40;;;5.30;99.90;;;;;;5071094;28;20675;-88
2024/02/26 07:27:44;;;;;;;0.10;0.10;;;5.40;99.90;;;;;;5071850;28;20229;-89
2024/02/26 07:30:12;;;;;;;0.20;0.20;;;5.40;99.90;;;;;;5072465;28;20229;-92
2024/02/26 07:32:38;;;;;;;0.77;0.77;;;5.40;99.90;;;;;;5073910;28;20205;-89
2024/02/26 07:35:05;;;;;;;0.90;0.90;;;5.40;99.90;;;;;;5071861;28;20236;-93
2024/02/26 07:37:31;;;;;;;0.20;0.20;;;5.40;99.90;;;;;;5071694;28;20240;-91
2024/02/26 07:39:56;;;;;;;0.97;0.87;;;5.50;99.90;;;;;;5071361;28;20244;-95
2024/02/26 07:42:22;;;;;;;0.20;0.20;;;5.50;99.90;;;;;;5071231;28;20233;-91
2024/02/26 07:44:53;;;;;;;0.20;0.20;;;5.50;99.90;;;;;;5054608;28;20204;-91
2024/02/26 07:47:21;;;;;;;0.30;0.30;;;5.50;99.90;;;;;;5071529;28;20550;-90
2024/02/26 07:49:47;;;;;;;0.20;0.20;;;5.50;99.90;;;;;;5072357;28;20225;-89
2024/02/26 07:52:13;;;;;;;0.20;0.20;;;5.60;99.90;;;;;;5074886;28;20568;-88
2024/02/26 07:54:39;;;;;;;0.20;0.20;;;5.60;99.90;;;;;;5058440;28;20259;-88
2024/02/26 07:57:05;;;;;;;0.40;0.40;;;5.70;99.90;;;;;;5074747;28;20685;-90
2024/02/26 07:59:32;;;;;;;0.43;0.43;;;5.70;99.90;;;;;;5058914;28;20227;-89
2024/02/26 08:02:02;;;;;;;1.90;1.30;;;5.70;99.90;;;;;;5074855;28;20233;-90
2024/02/26 08:04:29;;;;;;;0.87;0.80;;;5.80;99.90;;;;;;5075204;28;20297;-90
2024/02/26 08:06:57;;;;;;;0.20;0.20;;;5.80;99.90;;;;;;5074898;28;20233;-90
2024/02/26 08:09:23;;;;;;;10.57;0.93;;;5.90;99.90;;;;;;5049100;28;20220;-90
2024/02/26 08:11:48;;;;;;;0.20;0.20;;;6.00;99.90;;;;;;5058469;28;20664;-92
2024/02/26 08:14:17;;;;;;;0.40;0.40;;;6.00;99.90;;;;;;5058713;28;20197;-90
2024/02/26 08:16:45;;;;;;;0.20;0.20;;;6.00;99.90;;;;;;5075195;28;20306;-90
2024/02/26 08:19:14;;;;;;;1.20;0.40;;;6.00;99.90;;;;;;5057967;28;20233;-90
2024/02/26 08:21:39;;;;;;;0.43;0.43;;;6.00;99.90;;;;;;5058440;28;20310;-90
2024/02/26 08:24:08;;;;;;;0.23;0.23;;;6.10;99.90;;;;;;5074269;28;20229;-91
2024/02/26 08:26:36;;;;;;;0.30;0.30;;;6.10;99.90;;;;;;5075573;28;20292;-89
2024/02/26 08:29:02;;;;;;;0.20;0.20;;;6.20;99.90;;;;;;5058118;28;20681;-88
2024/02/26 08:31:29;;;;;;;0.87;0.87;;;6.20;99.90;;;;;;5075908;28;20343;-92
2024/02/26 08:33:55;;;;;;;0.20;0.20;;;6.20;99.90;;;;;;5074365;28;20233;-89
2024/02/26 08:36:20;;;;;;;0.40;0.40;;;6.20;99.90;;;;;;5058192;28;20309;-92
2024/02/26 08:38:46;;;;;;;0.33;0.33;;;6.20;99.90;;;;;;5074781;28;20379;-90
2024/02/26 08:41:13;;;;;;;1.20;0.40;;;6.30;99.90;;;;;;5058336;28;20216;-92
2024/02/26 08:43:38;;;;;;;0.20;0.20;;;6.30;99.90;;;;;;5058374;28;20236;-89
2024/02/26 08:46:08;;;;;;;0.40;0.40;;;6.30;99.90;;;;;;5073962;28;20592;-89
2024/02/26 08:48:33;;;;;;;0.20;0.20;;;6.30;99.90;;;;;;5074201;28;20225;-90
2024/02/26 08:50:59;;;;;;;0.53;0.53;;;6.30;99.90;;;;;;5075096;28;20212;-89
2024/02/26 08:53:26;;;;;;;0.20;0.20;;;6.40;99.90;;;;;;5058020;28;20197;-88
2024/02/26 08:55:52;;;;;;;0.30;0.30;;;6.40;99.90;;;;;;5073868;28;20241;-88
2024/02/26 08:58:18;;;;;;;0.57;0.57;;;6.50;99.90;;;;;;5057183;28;20336;-88
2024/02/26 09:00:44;;;;;;;0.40;0.40;;;6.40;99.90;;;;;;5057802;28;20296;-91
2024/02/26 09:03:13;;;;;;;0.10;0.10;;;6.40;99.90;;;;;;5056399;28;20355;-88
2024/02/26 09:05:39;;;;;;;0.50;0.50;;;6.50;99.90;;;;;;5074071;28;20204;-89
2024/02/26 09:08:05;;;;;;;1.73;1.63;;;6.50;99.90;;;;;;5073525;28;20229;-89
2024/02/26 09:10:31;;;;;;;0.30;0.30;;;6.50;99.90;;;;;;5057301;28;20237;-93
2024/02/26 09:12:57;;;;;;;3.20;1.07;;;6.50;99.90;;;;;;5073463;28;20231;-88
2024/02/26 09:15:23;;;;;;;0.30;0.23;;;6.60;99.90;;;;;;5073896;28;20315;-91
2024/02/26 09:17:50;;;;;;;0.30;0.30;;;6.60;99.90;;;;;;5057482;28;20287;-90
2024/02/26 09:20:19;;;;;;;3.47;2.30;;;6.60;99.90;;;;;;5074826;28;20197;-89
2024/02/26 09:22:46;;;;;;;0.60;0.60;;;6.70;99.90;;;;;;5075354;28;20229;-90
2024/02/26 09:25:13;;;;;;;0.20;0.20;;;6.80;99.90;;;;;;5075401;28;20237;-88
2024/02/26 09:27:39;;;;;;;0.47;0.47;;;6.80;99.90;;;;;;5073752;28;20237;-90
2024/02/26 09:30:05;;;;;;;0.50;0.50;;;6.80;99.90;;;;;;5056739;28;20225;-91
2024/02/26 09:32:31;;;;;;;0.30;0.30;;;6.80;99.90;;;;;;5075305;28;20201;-90
2024/02/26 09:34:56;;;;;;;2.53;0.40;;;6.80;99.90;;;;;;5056638;28;20232;-90
2024/02/26 09:37:28;;;;;;;0.20;0.20;;;6.90;99.90;;;;;;5074749;28;20685;-88
2024/02/26 09:39:53;;;;;;;0.37;0.37;;;6.90;99.90;;;;;;5073215;28;20233;-90
2024/02/26 09:42:27;;;;;;;3.20;0.97;;;7.00;99.90;;;;;;5072972;28;20239;-87
2024/02/26 09:44:59;;;;;;;1.73;1.30;;;7.10;99.90;;;;;;5074016;28;20194;-85
2024/02/26 09:47:27;;;;;;;0.20;0.20;;;7.10;99.90;;;;;;5073485;28;20241;-88
2024/02/26 09:49:55;;;;;;;0.23;0.23;;;7.10;99.90;;;;;;5073768;28;20580;-91
2024/02/26 09:52:23;;;;;;;0.30;0.30;;;7.10;99.90;;;;;;5057364;28;20233;-92
2024/02/26 09:54:49;;;;;;;0.30;0.30;;;7.20;99.90;;;;;;5073344;28;20236;-90
2024/02/26 09:57:17;;;;;;;0.30;0.30;;;7.20;99.90;;;;;;5056601;28;20233;-93
2024/02/26 09:59:43;;;;;;;0.30;0.30;;;7.20;99.90;;;;;;5075197;28;20284;-89
2024/02/26 10:02:12;;;;;;;0.20;0.20;;;7.10;99.90;;;;;;5073700;28;20204;-92
2024/02/26 10:04:39;;;;;;;0.10;0.10;;;7.10;99.90;;;;;;5073252;28;20240;-91
2024/02/26 10:07:10;;;;;;;0.60;0.60;;;7.10;99.90;;;;;;5072658;28;20271;-91
2024/02/26 10:09:36;;;;;;;0.20;0.20;;;7.10;99.90;;;;;;5072991;28;20304;-90
2024/02/26 10:12:03;;;;;;;0.20;0.20;;;7.10;99.90;;;;;;5056961;28;20259;-91
2024/02/26 10:14:29;;;;;;;3.50;0.30;;;7.20;99.90;;;;;;5056628;28;20243;-92
2024/02/26 10:16:55;;;;;;;0.10;0.10;;;7.10;99.90;;;;;;5073897;28;20237;-91
2024/02/26 10:19:31;;;;;;;0.40;0.40;;;7.00;99.90;;;;;;5073970;28;20233;-92
2024/02/26 10:21:58;;;;;;;0.30;0.30;;;7.00;99.90;;;;;;5073820;28;20228;-94
2024/02/26 10:24:28;;;;;;;0.30;0.30;;;7.10;99.90;;;;;;5072713;28;20263;-91
2024/02/26 10:26:55;;;;;;;0.97;0.97;;;7.20;99.90;;;;;;5072729;28;20198;-91
2024/02/26 10:29:23;;;;;;;0.20;0.20;;;7.20;99.90;;;;;;5073266;28;20276;-90
2024/02/26 10:31:50;;;;;;;2.13;2.03;;;7.20;99.90;;;;;;5072834;28;20670;-93
2024/02/26 10:34:16;;;;;;;0.20;0.20;;;7.20;99.90;;;;;;5056318;28;20283;-90
2024/02/26 10:36:43;;;;;;;1.50;0.87;;;7.20;99.90;;;;;;5072560;28;20229;-92
2024/02/26 10:39:16;;;;;;;3.20;1.03;;;7.20;99.90;;;;;;5038990;28;20233;-91
2024/02/26 10:41:43;;;;;;;0.20;0.20;;;7.20;99.90;;;;;;5072612;28;20261;-90
2024/02/26 10:44:12;;;;;;;0.40;0.40;;;7.20;99.90;;;;;;5073699;28;20229;-90
2024/02/26 10:46:40;;;;;;;0.40;0.40;;;7.30;99.90;;;;;;5072009;28;20244;-88
2024/02/26 10:49:19;;;;;;;0.50;0.50;;;7.30;99.90;;;;;;5071991;28;20687;-89
2024/02/26 10:51:52;;;;;;;0.20;0.20;;;7.30;99.90;;;;;;5073605;28;20228;-90
2024/02/26 10:54:19;;;;;;;0.10;0.10;;;7.30;99.90;;;;;;5072041;28;20220;-92
2024/02/26 10:56:47;;;;;;;0.60;0.40;;;7.20;99.90;;;;;;5072637;28;20238;-91
2024/02/26 10:59:20;;;;;;;0.37;0.37;;;7.20;99.90;;;;;;5073665;28;20692;-90
2024/02/26 11:01:49;;;;;;;0.20;0.20;;;7.20;99.90;;;;;;5072713;28;20257;-91
2024/02/26 11:04:16;;;;;;;0.50;0.50;;;7.20;99.90;;;;;;5071748;28;20535;-91
2024/02/26 11:06:43;;;;;;;0.30;0.30;;;7.20;99.90;;;;;;5072817;28;20233;-89
2024/02/26 11:09:13;;;;;;;0.50;0.50;;;7.30;99.90;;;;;;5055028;28;20253;-89
2024/02/26 11:11:40;;;;;;;0.87;0.87;;;7.30;99.90;;;;;;5072524;28;20205;-90
2024/02/26 11:14:08;;;;;;;0.43;0.43;;;7.40;99.90;;;;;;5072140;28;20259;-90
2024/02/26 11:16:35;;;;;;;0.67;0.67;;;7.30;99.90;;;;;;5071861;28;20685;-90
2024/02/26 11:19:02;;;;;;;0.57;0.57;;;7.30;99.90;;;;;;5055038;28;20294;-91
2024/02/26 11:21:38;;;;;;;0.73;0.73;;;7.40;99.90;;;;;;5072670;28;20240;-92
2024/02/26 11:24:07;;;;;;;7.63;0.60;;;7.40;99.90;;;;;;5072457;28;20651;-92
2024/02/26 11:26:38;;;;;;;3.20;0.83;;;7.40;99.90;;;;;;5071650;28;20205;-93
2024/02/26 11:29:07;;;;;;;0.50;0.50;;;7.30;99.90;;;;;;5071719;28;20552;-90
2024/02/26 11:31:33;;;;;;;0.40;0.40;;;7.20;99.90;;;;;;5055533;28;20267;-90
2024/02/26 11:33:59;;;;;;;0.40;0.40;;;7.20;99.90;;;;;;5071619;28;20237;-90
2024/02/26 11:36:25;;;;;;;1.67;1.50;;;7.20;99.90;;;;;;5054527;28;20239;-92
2024/02/26 11:38:52;;;;;;;0.53;0.53;;;7.30;99.90;;;;;;5071363;28;20254;-90
2024/02/26 11:41:18;;;;;;;0.93;0.53;;;7.30;99.90;;;;;;5055847;28;20659;-90
2024/02/26 11:44:01;;;;;;;0.60;0.60;;;7.30;99.90;;;;;;5061659;28;20231;-92
2024/02/26 11:46:41;;;;;;;0.30;0.30;;;7.40;99.90;;;;;;5071580;28;20244;-89
2024/02/26 11:49:28;;;;;;;0.43;0.30;;;7.40;99.90;;;;;;5072991;28;20717;-92
2024/02/26 11:51:55;;;;;;;0.40;0.40;;;7.20;99.90;;;;;;5071590;28;20370;-90
2024/02/26 11:54:42;;;;;;;1.03;0.73;;;7.20;99.90;;;;;;5071547;28;20255;-90
2024/02/26 11:57:32;;;;;;;0.63;0.63;;;7.40;99.90;;;;;;5071365;28;20229;-90
2024/02/26 12:00:06;;;;;;;1.60;0.90;;;7.40;99.90;;;;;;5070985;28;20210;-89
2024/02/26 12:02:49;;;;;;;0.20;0.20;;;7.20;99.90;;;;;;5071495;28;20644;-89
2024/02/26 12:05:23;;;;;;;0.50;0.50;;;7.30;99.90;;;;;;5072820;28;20630;-90
2024/02/26 12:08:07;;;;;;;0.43;0.43;;;7.20;99.90;;;;;;5071589;28;20256;-90
2024/02/26 12:10:36;;;;;;;1.47;0.57;;;7.30;99.90;;;;;;5072451;28;20685;-90
2024/02/26 12:13:13;;;;;;;0.20;0.20;;;7.20;99.90;;;;;;5071099;28;20244;-89
2024/02/26 12:15:44;;;;;;;0.10;0.10;;;7.20;99.90;;;;;;5055962;28;20240;-90
2024/02/26 12:18:16;;;;;;;0.20;0.20;;;7.20;99.90;;;;;;5072131;28;20279;-90
2024/02/26 12:20:43;;;;;;;0.20;0.20;;;7.20;99.90;;;;;;5071275;28;20193;-88
2024/02/26 12:23:15;;;;;;;0.10;0.10;;;7.20;99.90;;;;;;5055156;28;20204;-88
2024/02/26 12:25:41;;;;;;;0.20;0.20;;;7.20;99.90;;;;;;5071746;28;20285;-88
2024/02/26 12:28:07;;;;;;;0.60;0.60;;;7.10;99.90;;;;;;5037100;28;20225;-91
2024/02/26 12:30:34;;;;;;;1.63;0.73;;;7.20;99.90;;;;;;5066581;28;20592;-89
2024/02/26 12:33:01;;;;;;;1.57;0.40;;;7.20;99.90;;;;;;5071273;28;20212;-90
2024/02/26 12:35:28;;;;;;;0.23;0.23;;;7.10;99.90;;;;;;5055148;28;20258;-89
2024/02/26 12:37:54;;;;;;;0.67;0.67;;;7.10;99.90;;;;;;5074462;28;20249;-89
2024/02/26 12:40:20;;;;;;;0.47;0.47;;;7.10;99.90;;;;;;5074690;28;20228;-90
2024/02/26 12:42:46;;;;;;;1.17;1.07;;;7.00;99.90;;;;;;5074623;28;20229;-88
2024/02/26 12:45:14;;;;;;;0.40;0.40;;;7.00;99.90;;;;;;5075883;28;20229;-94
2024/02/26 12:47:44;;;;;;;0.43;0.43;;;7.10;99.90;;;;;;5096528;28;20576;-89
2024/02/26 12:50:10;;;;;;;0.30;0.30;;;7.00;99.90;;;;;;5096375;28;20228;-88
2024/02/26 12:52:39;;;;;;;7.40;1.20;;;7.00;99.90;;;;;;5077657;28;20243;-90
2024/02/26 12:55:08;;;;;;;0.40;0.40;;;7.00;99.90;;;;;;5061754;28;20728;-94
2024/02/26 12:57:39;;;;;;;0.20;0.20;;;6.90;99.90;;;;;;5061666;28;20235;-91